Corpus Christi International Airport Corpus Christi US
ICAO: KCRP
IATA: CRP
Category: Large
Scheduled Services: Yes

Elevation: 44 ft
TransAlt. 18000 ft.

Airport Communications:
APP/DEP:120.9
ATIS:126.8
CLNC DEL:118.55
GND:121.9
SAN ANGELO RDO:122.65
TWR:119.4
UNICOM:122.95

KCRP Zoom In..

If you have problems with the map follow the link
https://www.worldairports.se/pages/airport.php?
ICAO=KCRP

Runways:

(A) RW 13 length 7508 ft width 150 ft
ILS 110.30 / hdg 129

(B) RW 17 length 6080 ft width 150 ft
LOC 110.30 / hdg 172

(C) RW 31 length 7508 ft width 150 ft
LOC 110.30 / hdg 309

(D) RW 35 length 6080 ft width 150 ft
ILS 109.50 / hdg 352

Location; KCRP
Day. 21 / Time. 17.51 Zulu
* Altimeter: 30.20
* Temperature: 19° c. 66.2°f.
* Wind from: 040° Speed 14 kn.
Dewpoint: 13° c.
Visibility: 10 Statute Miles.
Clouds: Few 2400 ft.
Clouds: Overcast 2700 ft.

KCRP 211751Z 04014KT 10SM FEW024 OVC027 19/13 A3020 RMK AO2 SLP225 T01940133 10206 20183 58004 $


Wind From 040°
Speed 14 kn.

 
 
jpsmedia.com for Web Design worldairports.se 2018   terms of use